Time,TemperatureF,DewpointF,PressureIn,WindDirection,WindDirectionDegrees,WindSpeedMPH,WindSpeedGustMPH,Humidity,HourlyPrecipIn,Conditions,Clouds,dailyrainin,SoftwareType,DateUTC
2013-07-04 00:01:00,49.0,38.0,-100.00,WNW,284,1.0,8.0,66,0.00,,,0.00,,2013-07-04 06:01:00,
2013-07-04 00:11:00,49.0,38.0,-100.00,WNW,284,1.0,8.0,66,0.00,,,0.00,,2013-07-04 06:11:00,
2013-07-04 00:22:00,49.0,38.0,-100.00,WNW,284,1.0,8.0,66,0.00,,,0.00,,2013-07-04 06:22:00,
2013-07-04 00:53:00,49.0,37.0,-100.00,South,182,5.0,9.0,63,0.00,,,0.00,,2013-07-04 06:53:00,
2013-07-04 01:02:00,49.0,37.0,-100.00,South,182,5.0,9.0,63,0.00,,,0.00,,2013-07-04 07:02:00,
2013-07-04 01:12:00,49.0,37.0,-100.00,South,182,5.0,9.0,63,0.00,,,0.00,,2013-07-04 07:12:00,
2013-07-04 01:22:00,49.0,37.0,-100.00,South,182,5.0,9.0,63,0.00,,,0.00,,2013-07-04 07:22:00,
2013-07-04 01:52:00,49.0,37.0,-100.00,SSE,147,0.0,7.0,63,0.00,,,0.00,,2013-07-04 07:52:00,
2013-07-04 02:02:00,49.0,37.0,-100.00,SSE,147,0.0,7.0,63,0.00,,,0.00,,2013-07-04 08:02:00,
2013-07-04 02:11:00,49.0,37.0,-100.00,SSE,147,0.0,7.0,63,0.00,,,0.00,,2013-07-04 08:11:00,
2013-07-04 02:22:00,49.0,37.0,-100.00,SSE,147,0.0,7.0,63,0.00,,,0.00,,2013-07-04 08:22:00,
2013-07-04 02:53:00,48.0,37.0,-100.00,SSW,192,2.0,3.0,65,0.00,,,0.00,,2013-07-04 08:53:00,
2013-07-04 03:02:00,48.0,37.0,-100.00,SSW,192,2.0,3.0,65,0.00,,,0.00,,2013-07-04 09:02:00,
2013-07-04 03:11:00,48.0,37.0,-100.00,SSW,192,2.0,3.0,65,0.00,,,0.00,,2013-07-04 09:11:00,
2013-07-04 03:22:00,48.0,37.0,-100.00,SSW,192,2.0,3.0,65,0.00,,,0.00,,2013-07-04 09:22:00,
2013-07-04 03:52:00,49.0,37.0,-100.00,SSW,195,3.0,6.0,62,0.00,,,0.00,,2013-07-04 09:52:00,
2013-07-04 04:01:00,49.0,37.0,-100.00,SSW,195,3.0,6.0,62,0.00,,,0.00,,2013-07-04 10:01:00,
2013-07-04 04:11:00,49.0,37.0,-100.00,SSW,195,3.0,6.0,62,0.00,,,0.00,,2013-07-04 10:11:00,
2013-07-04 04:22:00,49.0,37.0,-100.00,SSW,195,3.0,6.0,62,0.00,,,0.00,,2013-07-04 10:22:00,
2013-07-04 04:53:00,49.0,37.0,-100.00,SW,220,1.0,4.0,63,0.00,,,0.00,,2013-07-04 10:53:00,
2013-07-04 05:02:00,49.0,37.0,-100.00,SW,220,1.0,4.0,63,0.00,,,0.00,,2013-07-04 11:02:00,
2013-07-04 05:53:00,49.0,37.0,-100.00,SW,235,2.0,4.0,63,0.00,,,0.00,,2013-07-04 11:53:00,
2013-07-04 06:02:00,49.0,37.0,-100.00,SW,235,2.0,4.0,63,0.00,,,0.00,,2013-07-04 12:02:00,
2013-07-04 06:11:00,49.0,37.0,-100.00,SW,235,2.0,4.0,63,0.00,,,0.00,,2013-07-04 12:11:00,
2013-07-04 06:22:00,49.0,37.0,-100.00,SW,235,2.0,4.0,63,0.00,,,0.00,,2013-07-04 12:22:00,
2013-07-04 06:52:00,50.0,38.0,-100.00,WNW,290,0.0,3.0,64,0.00,,,0.00,,2013-07-04 12:52:00,
2013-07-04 07:02:00,50.0,38.0,-100.00,WNW,290,0.0,3.0,64,0.00,,,0.00,,2013-07-04 13:02:00,
2013-07-04 07:23:00,50.0,38.0,-100.00,WNW,290,0.0,3.0,64,0.00,,,0.00,,2013-07-04 13:23:00,
2013-07-04 08:53:00,58.0,40.0,-100.00,North,3,3.0,5.0,51,0.00,,,0.00,,2013-07-04 14:53:00,
2013-07-04 09:02:00,58.0,40.0,-100.00,North,3,3.0,5.0,51,0.00,,,0.00,,2013-07-04 15:02:00,
2013-07-04 09:11:00,58.0,40.0,-100.00,North,3,3.0,5.0,51,0.00,,,0.00,,2013-07-04 15:11:00,
2013-07-04 09:23:00,58.0,40.0,-100.00,North,3,3.0,5.0,51,0.00,,,0.00,,2013-07-04 15:23:00,
2013-07-04 10:02:00,62.0,42.0,-100.00,NNE,12,3.0,7.0,47,0.00,,,-99.99,,2013-07-04 16:02:00,
2013-07-04 10:11:00,62.0,42.0,-100.00,NNE,12,3.0,7.0,47,0.00,,,-99.99,,2013-07-04 16:11:00,
2013-07-04 10:22:00,62.0,42.0,-100.00,NNE,12,3.0,7.0,47,0.00,,,-99.99,,2013-07-04 16:22:00,
2013-07-04 10:52:00,62.0,42.0,-100.00,NNW,327,5.0,10.0,48,0.00,,,0.00,,2013-07-04 16:52:00,
2013-07-04 11:01:00,62.0,42.0,-100.00,NNW,327,5.0,10.0,48,0.00,,,0.00,,2013-07-04 17:01:00,
2013-07-04 11:12:00,62.0,42.0,-100.00,NNW,327,5.0,10.0,48,0.00,,,0.00,,2013-07-04 17:12:00,
2013-07-04 11:22:00,62.0,42.0,-100.00,NNW,327,5.0,10.0,48,0.00,,,0.00,,2013-07-04 17:22:00,
2013-07-04 11:53:00,65.0,40.0,-100.00,NNW,328,7.0,26.0,40,0.00,,,0.00,,2013-07-04 17:53:00,
2013-07-04 12:01:00,65.0,40.0,-100.00,NNW,328,7.0,26.0,40,0.00,,,0.00,,2013-07-04 18:01:00,
2013-07-04 12:11:00,65.0,40.0,-100.00,NNW,328,7.0,26.0,40,0.00,,,0.00,,2013-07-04 18:11:00,
2013-07-04 12:22:00,65.0,40.0,-100.00,NNW,328,7.0,26.0,40,0.00,,,0.00,,2013-07-04 18:22:00,
2013-07-04 12:52:00,66.0,37.0,-100.00,WNW,284,13.0,29.0,34,0.00,,,0.00,,2013-07-04 18:52:00,
2013-07-04 13:01:00,66.0,37.0,-100.00,WNW,284,13.0,29.0,34,0.00,,,0.00,,2013-07-04 19:01:00,
2013-07-04 13:12:00,66.0,37.0,-100.00,WNW,284,13.0,29.0,34,0.00,,,0.00,,2013-07-04 19:12:00,
2013-07-04 13:22:00,66.0,37.0,-100.00,WNW,284,13.0,29.0,34,0.00,,,0.00,,2013-07-04 19:22:00,
2013-07-04 13:53:00,68.0,36.0,-100.00,West,279,7.0,19.0,31,0.00,,,0.00,,2013-07-04 19:53:00,
2013-07-04 14:01:00,68.0,36.0,-100.00,West,279,7.0,19.0,31,0.00,,,0.00,,2013-07-04 20:01:00,
2013-07-04 14:11:00,68.0,36.0,-100.00,West,279,7.0,19.0,31,0.00,,,0.00,,2013-07-04 20:11:00,
2013-07-04 14:22:00,68.0,36.0,-100.00,West,279,7.0,19.0,31,0.00,,,0.00,,2013-07-04 20:22:00,
2013-07-04 14:53:00,67.0,35.0,-100.00,SW,230,6.0,24.0,31,0.00,,,0.00,,2013-07-04 20:53:00,
2013-07-04 15:01:00,67.0,35.0,-100.00,SW,230,6.0,24.0,31,0.00,,,0.00,,2013-07-04 21:01:00,
2013-07-04 15:11:00,67.0,35.0,-100.00,SW,230,6.0,24.0,31,0.00,,,0.00,,2013-07-04 21:11:00,
2013-07-04 15:22:00,67.0,35.0,-100.00,SW,230,6.0,24.0,31,0.00,,,0.00,,2013-07-04 21:22:00,
2013-07-04 15:53:00,72.0,33.0,-100.00,West,278,12.0,24.0,24,0.00,,,-99.99,,2013-07-04 21:53:00,
2013-07-04 16:11:00,72.0,33.0,-100.00,West,278,12.0,24.0,24,0.00,,,-99.99,,2013-07-04 22:11:00,
2013-07-04 16:22:00,72.0,33.0,-100.00,West,278,12.0,24.0,24,0.00,,,-99.99,,2013-07-04 22:22:00,
2013-07-04 17:52:00,61.0,39.0,-100.00,ENE,67,16.0,44.0,44,0.00,,,0.00,,2013-07-04 23:52:00,
2013-07-04 18:01:00,61.0,39.0,-100.00,ENE,67,16.0,44.0,44,0.00,,,0.00,,2013-07-05 00:01:00,
2013-07-04 18:11:00,61.0,39.0,-100.00,ENE,67,16.0,44.0,44,0.00,,,0.00,,2013-07-05 00:11:00,
2013-07-04 18:22:00,61.0,39.0,-100.00,ENE,67,16.0,44.0,44,0.00,,,0.00,,2013-07-05 00:22:00,
2013-07-04 18:52:00,62.0,37.0,-100.00,ENE,58,5.0,23.0,40,0.00,,,0.00,,2013-07-05 00:52:00,
2013-07-04 19:01:00,62.0,37.0,-100.00,ENE,58,5.0,23.0,40,0.00,,,0.00,,2013-07-05 01:01:00,
2013-07-04 19:11:00,62.0,37.0,-100.00,ENE,58,5.0,23.0,40,0.00,,,0.00,,2013-07-05 01:11:00,
2013-07-04 19:22:00,62.0,37.0,-100.00,ENE,58,5.0,23.0,40,0.00,,,0.00,,2013-07-05 01:22:00,
2013-07-04 19:52:00,62.0,36.0,-100.00,ENE,62,9.0,32.0,38,0.00,,,0.00,,2013-07-05 01:52:00,
2013-07-04 20:02:00,62.0,36.0,-100.00,ENE,62,9.0,32.0,38,0.00,,,0.00,,2013-07-05 02:02:00,
2013-07-04 20:11:00,62.0,36.0,-100.00,ENE,62,9.0,32.0,38,0.00,,,0.00,,2013-07-05 02:11:00,
2013-07-04 20:21:00,62.0,36.0,-100.00,ENE,62,9.0,32.0,38,0.00,,,0.00,,2013-07-05 02:21:00,
2013-07-04 20:52:00,59.0,35.0,-100.00,ENE,64,3.0,24.0,40,0.00,,,0.00,,2013-07-05 02:52:00,
2013-07-04 21:02:00,59.0,35.0,-100.00,ENE,64,3.0,24.0,40,0.00,,,0.00,,2013-07-05 03:02:00,
2013-07-04 21:11:00,59.0,35.0,-100.00,ENE,64,3.0,24.0,40,0.00,,,0.00,,2013-07-05 03:11:00,
2013-07-04 21:22:00,59.0,35.0,-100.00,ENE,64,3.0,24.0,40,0.00,,,0.00,,2013-07-05 03:22:00,
2013-07-04 21:52:00,57.0,36.0,-100.00,WNW,290,2.0,11.0,45,0.00,,,0.00,,2013-07-05 03:52:00,
2013-07-04 22:01:00,57.0,36.0,-100.00,WNW,290,2.0,11.0,45,0.00,,,0.00,,2013-07-05 04:01:00,
2013-07-04 22:11:00,57.0,36.0,-100.00,WNW,290,2.0,11.0,45,0.00,,,0.00,,2013-07-05 04:11:00,
2013-07-04 22:22:00,57.0,36.0,-100.00,WNW,290,2.0,11.0,45,0.00,,,0.00,,2013-07-05 04:22:00,
2013-07-04 22:53:00,58.0,36.0,-100.00,SSE,161,13.0,19.0,44,0.00,,,0.00,,2013-07-05 04:53:00,
2013-07-04 23:01:00,58.0,36.0,-100.00,SSE,161,13.0,19.0,44,0.00,,,0.00,,2013-07-05 05:01:00,
2013-07-04 23:12:00,58.0,36.0,-100.00,SSE,161,13.0,19.0,44,0.00,,,0.00,,2013-07-05 05:12:00,
2013-07-04 23:22:00,58.0,36.0,-100.00,SSE,161,13.0,19.0,44,0.00,,,0.00,,2013-07-05 05:22:00,
2013-07-04 23:52:00,57.0,36.0,-100.00,SSE,164,23.0,50.0,45,0.00,,,0.00,,2013-07-05 05:52:00,